Lowman, Idaho
Current Conditions -  °F | °C
As of 3:53 PM on Tuesday 25 Nov 2014 (Local Time) from KBOI Reporting Station
Scattered Clouds Scattered Clouds  
Wind Chill: 54°   Ceiling: Unl
Heat Index: 54°   Visibility: 10mi
Dew Point: 42°   Wind: 8mph
Humidity: 64%   Direction: 330°NNW
Pressure: 30.25"   Gusts: NA
Location:  44.08°N, 115.62°W
Report Text: KBOI 252253Z 33007KT 10SM SCT085 12/06 A3025 RMK AO2 SLP244 T01220056
Loading
Personal Weather Stations






























Interactive Weather Map New forecast layout! Learn more

10-Day Weather Forecast

Advertisements
Track Severe Weather on mobile